createdAt,value
2017-09-18T00:01:40.850Z,10.50
2017-09-18T00:04:07.123Z,10.50
2017-09-18T00:06:33.671Z,10.50
2017-09-18T00:09:00.642Z,10.40
2017-09-18T00:11:26.893Z,10.40
2017-09-18T00:13:53.486Z,10.40
2017-09-18T00:16:20.482Z,10.40
2017-09-18T00:18:46.725Z,10.40
2017-09-18T00:21:13.313Z,10.30
2017-09-18T00:23:39.555Z,10.30
2017-09-18T00:26:05.833Z,10.10
2017-09-18T00:28:33.162Z,10.10
2017-09-18T00:30:59.380Z,10.10
2017-09-18T00:33:25.654Z,10.10
2017-09-18T00:35:53.026Z,10.10
2017-09-18T00:38:19.245Z,10.10
2017-09-18T00:40:46.297Z,10.20
2017-09-18T00:43:13.672Z,10.20
2017-09-18T00:45:39.936Z,10.20
2017-09-18T00:48:06.163Z,10.20
2017-09-18T00:50:32.879Z,10.30
2017-09-18T00:52:59.166Z,10.30
2017-09-18T00:55:26.273Z,10.40
2017-09-18T00:57:52.995Z,10.40
2017-09-18T01:00:19.283Z,10.50
2017-09-18T01:02:45.578Z,10.50
2017-09-18T01:05:12.179Z,10.50
2017-09-18T01:07:38.440Z,10.50
2017-09-18T01:10:04.769Z,10.50
2017-09-18T01:12:31.490Z,10.50
2017-09-18T01:14:57.745Z,10.50
2017-09-18T01:17:23.962Z,10.60
2017-09-18T01:19:50.595Z,10.60
2017-09-18T01:22:16.930Z,10.60
2017-09-18T01:24:43.189Z,10.70
2017-09-18T01:27:09.793Z,10.70
2017-09-18T01:29:36.080Z,10.70
2017-09-18T01:32:03.060Z,10.70
2017-09-18T01:34:29.686Z,10.70
2017-09-18T01:36:55.985Z,10.70
2017-09-18T01:39:22.233Z,10.70
2017-09-18T01:41:49.566Z,10.70
2017-09-18T01:44:15.774Z,10.70
2017-09-18T01:46:41.976Z,10.60
2017-09-18T01:49:08.594Z,10.60
2017-09-18T01:51:34.846Z,10.60
2017-09-18T01:54:01.086Z,10.70
2017-09-18T01:56:27.750Z,10.70
2017-09-18T01:58:53.972Z,10.70
2017-09-18T02:01:20.288Z,10.70
2017-09-18T02:03:53.808Z,10.70
2017-09-18T02:06:20.078Z,10.70
2017-09-18T02:08:46.302Z,10.70
2017-09-18T02:11:13.587Z,10.60
2017-09-18T02:13:39.851Z,10.60
2017-09-18T02:16:13.553Z,10.70
2017-09-18T02:18:39.719Z,10.70
2017-09-18T02:21:05.968Z,10.70
2017-09-18T02:23:32.689Z,10.70
2017-09-18T02:25:58.902Z,10.70
2017-09-18T02:28:25.929Z,10.70
2017-09-18T02:30:53.317Z,10.70
2017-09-18T02:33:19.585Z,10.70
2017-09-18T02:35:45.892Z,10.70
2017-09-18T02:38:12.476Z,10.60
2017-09-18T02:40:38.757Z,10.70
2017-09-18T02:43:05.009Z,10.70
2017-09-18T02:45:31.491Z,10.60
2017-09-18T02:47:58.511Z,10.70
2017-09-18T02:50:24.813Z,10.70
2017-09-18T02:52:51.380Z,10.70
2017-09-18T02:55:17.612Z,10.80
2017-09-18T02:57:43.831Z,10.80
2017-09-18T03:00:10.367Z,10.80
2017-09-18T03:02:36.634Z,10.80
2017-09-18T03:05:02.942Z,10.90
2017-09-18T03:07:30.324Z,10.90
2017-09-18T03:09:56.576Z,10.90
2017-09-18T03:12:22.814Z,10.90
2017-09-18T03:14:49.426Z,10.90
2017-09-18T03:17:15.632Z,10.90
2017-09-18T03:19:42.648Z,10.90
2017-09-18T03:22:10.015Z,10.90
2017-09-18T03:24:36.247Z,10.90
2017-09-18T03:27:02.435Z,11.00
2017-09-18T03:29:29.105Z,10.90
2017-09-18T03:31:55.378Z,10.90
2017-09-18T03:34:21.629Z,11.00
2017-09-18T03:36:47.939Z,11.00
2017-09-18T03:39:14.220Z,11.00
2017-09-18T03:41:40.474Z,11.00
2017-09-18T03:44:07.506Z,11.00
2017-09-18T03:46:33.787Z,10.90
2017-09-18T03:49:00.033Z,10.90
2017-09-18T03:51:26.232Z,10.90
2017-09-18T03:53:52.459Z,10.90
2017-09-18T03:56:18.729Z,10.90
2017-09-18T03:58:45.367Z,11.00
2017-09-18T04:01:11.635Z,11.00
2017-09-18T04:03:38.586Z,11.00
2017-09-18T04:06:05.952Z,11.00
2017-09-18T04:08:32.182Z,11.00
2017-09-18T04:10:58.411Z,11.00
2017-09-18T04:13:24.637Z,11.00
2017-09-18T04:15:50.915Z,11.00
2017-09-18T04:18:17.160Z,11.00
2017-09-18T04:20:43.424Z,11.00
2017-09-18T04:23:09.639Z,11.00
2017-09-18T04:25:36.581Z,11.10
2017-09-18T04:28:03.964Z,11.10
2017-09-18T04:30:30.167Z,11.00
2017-09-18T04:32:57.118Z,11.10
2017-09-18T04:35:24.582Z,11.10
2017-09-18T04:37:51.384Z,11.00
2017-09-18T04:40:17.648Z,11.10
2017-09-18T04:42:44.701Z,11.10
2017-09-18T04:45:10.907Z,11.10
2017-09-18T04:47:37.898Z,11.10
2017-09-18T04:50:04.170Z,11.10
2017-09-18T04:52:30.403Z,11.10
2017-09-18T04:54:56.642Z,11.00
2017-09-18T04:57:23.661Z,11.00
2017-09-18T04:59:49.926Z,11.00
2017-09-18T05:02:16.871Z,11.10
2017-09-18T05:04:43.831Z,11.00
2017-09-18T05:07:10.935Z,11.00
2017-09-18T05:09:37.209Z,11.00
2017-09-18T05:12:03.524Z,11.00
2017-09-18T05:14:30.522Z,11.00
2017-09-18T05:16:56.730Z,11.00
2017-09-18T05:19:22.981Z,11.00
2017-09-18T05:21:49.293Z,11.00
2017-09-18T05:24:15.538Z,11.10
2017-09-18T05:26:41.832Z,11.10
2017-09-18T05:29:08.426Z,11.10
2017-09-18T05:31:34.714Z,11.10
2017-09-18T05:34:01.032Z,11.10
2017-09-18T05:36:27.666Z,11.20
2017-09-18T05:38:53.913Z,11.20
2017-09-18T05:41:20.139Z,11.20
2017-09-18T05:43:46.386Z,11.20
2017-09-18T05:46:12.602Z,11.20
2017-09-18T05:48:38.874Z,11.20
2017-09-18T05:51:05.078Z,11.20
2017-09-18T05:53:31.315Z,11.20
2017-09-18T05:55:58.352Z,11.30
2017-09-18T05:58:24.601Z,11.30
2017-09-18T06:00:50.888Z,11.30
2017-09-18T06:03:17.217Z,11.30
2017-09-18T06:05:43.453Z,11.30
2017-09-18T06:08:09.733Z,11.20
2017-09-18T06:10:37.080Z,11.30
2017-09-18T06:13:04.106Z,11.30
2017-09-18T06:15:30.357Z,11.30
2017-09-18T06:17:56.995Z,11.20
2017-09-18T06:20:23.951Z,11.20
2017-09-18T06:22:50.207Z,11.20
2017-09-18T06:25:16.443Z,11.20
2017-09-18T06:27:42.691Z,11.30
2017-09-18T06:30:08.905Z,11.20
2017-09-18T06:32:35.166Z,11.30
2017-09-18T06:35:01.457Z,11.30
2017-09-18T06:37:30.018Z,11.10
2017-09-18T06:39:57.157Z,11.10
2017-09-18T06:42:24.187Z,11.20
2017-09-18T06:44:51.221Z,11.20
2017-09-18T06:47:17.435Z,11.10
2017-09-18T06:49:43.701Z,11.20
2017-09-18T06:52:09.966Z,11.30
2017-09-18T06:54:36.559Z,11.30
2017-09-18T06:57:02.859Z,11.40
2017-09-18T06:59:29.117Z,11.40
2017-09-18T07:01:56.085Z,11.40
2017-09-18T07:04:23.026Z,11.40
2017-09-18T07:06:49.315Z,11.40
2017-09-18T07:09:15.566Z,11.50
2017-09-18T07:11:41.857Z,11.60
2017-09-18T07:14:08.103Z,11.60
2017-09-18T07:16:34.315Z,11.70
2017-09-18T07:19:01.038Z,11.80
2017-09-18T07:21:27.282Z,11.80
2017-09-18T07:23:53.550Z,11.90
2017-09-18T07:26:19.871Z,11.80
2017-09-18T07:28:46.870Z,11.70
2017-09-18T07:31:13.103Z,11.60
2017-09-18T07:33:39.387Z,11.60
2017-09-18T07:36:06.405Z,11.60
2017-09-18T07:38:32.668Z,11.60
2017-09-18T07:40:58.896Z,11.70
2017-09-18T07:43:25.482Z,11.70
2017-09-18T07:45:51.756Z,11.80
2017-09-18T07:48:18.059Z,11.90
2017-09-18T07:50:44.261Z,11.90
2017-09-18T07:53:10.491Z,12.00
2017-09-18T07:55:37.125Z,12.10
2017-09-18T07:58:03.406Z,12.10
2017-09-18T08:00:29.606Z,12.10
2017-09-18T08:02:56.312Z,12.20
2017-09-18T08:05:22.593Z,12.30
2017-09-18T08:07:48.861Z,12.40
2017-09-18T08:10:16.201Z,12.40
2017-09-18T08:12:43.158Z,12.40
2017-09-18T08:15:10.169Z,12.40
2017-09-18T08:17:36.380Z,12.40
2017-09-18T08:20:02.701Z,12.40
2017-09-18T08:22:29.054Z,12.40
2017-09-18T08:24:55.417Z,12.40
2017-09-18T08:27:22.437Z,12.40
2017-09-18T08:29:48.737Z,12.40
2017-09-18T08:32:15.023Z,12.40
2017-09-18T08:34:42.038Z,12.40
2017-09-18T08:37:08.357Z,12.30
2017-09-18T08:39:34.618Z,12.40
2017-09-18T08:42:00.914Z,12.30
2017-09-18T08:44:27.096Z,12.40
2017-09-18T08:46:54.435Z,12.40
2017-09-18T08:49:20.723Z,12.40
2017-09-18T08:51:47.021Z,12.40
2017-09-18T08:54:13.319Z,12.50
2017-09-18T08:56:39.614Z,12.50
2017-09-18T08:59:05.868Z,12.60
2017-09-18T09:01:32.165Z,12.50
2017-09-18T09:03:58.378Z,12.40
2017-09-18T09:06:24.610Z,12.60
2017-09-18T09:08:50.866Z,12.80
2017-09-18T09:11:17.111Z,12.70
2017-09-18T09:13:43.386Z,12.80
2017-09-18T09:16:09.716Z,12.90
2017-09-18T09:18:36.017Z,12.90
2017-09-18T09:21:03.037Z,13.00
2017-09-18T09:23:29.566Z,13.00
2017-09-18T09:26:03.111Z,13.10
2017-09-18T09:28:30.497Z,13.40
2017-09-18T09:30:56.839Z,13.40
2017-09-18T09:33:23.087Z,13.50
2017-09-18T09:35:49.410Z,13.60
2017-09-18T09:38:15.626Z,13.60
2017-09-18T09:40:41.937Z,13.60
2017-09-18T09:43:08.203Z,13.40
2017-09-18T09:45:34.448Z,13.30
2017-09-18T09:48:00.746Z,13.40
2017-09-18T09:50:26.997Z,13.50
2017-09-18T09:52:53.278Z,13.50
2017-09-18T09:55:19.519Z,13.70
2017-09-18T09:57:45.756Z,13.80
2017-09-18T10:00:12.065Z,14.00
2017-09-18T10:02:38.356Z,14.00
2017-09-18T10:05:04.613Z,13.90
2017-09-18T10:07:31.574Z,13.90
2017-09-18T10:09:58.582Z,13.90
2017-09-18T10:12:25.119Z,13.90
2017-09-18T10:14:51.351Z,13.90
2017-09-18T10:17:17.627Z,14.00
2017-09-18T10:19:43.881Z,14.10
2017-09-18T10:22:10.194Z,14.10
2017-09-18T10:24:36.455Z,14.20
2017-09-18T10:27:02.736Z,14.40
2017-09-18T10:29:29.084Z,14.80
2017-09-18T10:31:55.320Z,15.30
2017-09-18T10:34:21.997Z,15.50
2017-09-18T10:36:48.252Z,15.40
2017-09-18T10:39:14.492Z,15.30
2017-09-18T10:41:41.083Z,15.20
2017-09-18T10:44:07.328Z,15.40
2017-09-18T10:46:34.286Z,15.60
2017-09-18T10:49:01.632Z,15.50
2017-09-18T10:51:27.852Z,15.50
2017-09-18T10:53:54.114Z,15.40
2017-09-18T10:56:20.404Z,15.10
2017-09-18T10:58:46.707Z,15.20
2017-09-18T11:01:13.016Z,15.10
2017-09-18T11:03:39.268Z,15.00
2017-09-18T11:06:05.550Z,15.20
2017-09-18T11:08:31.767Z,15.70
2017-09-18T11:10:58.242Z,16.00
2017-09-18T11:13:24.471Z,15.70
2017-09-18T11:15:50.743Z,15.20
2017-09-18T11:18:17.014Z,14.90
2017-09-18T11:20:43.233Z,15.40
2017-09-18T11:23:10.276Z,16.60
2017-09-18T11:25:37.612Z,16.80
2017-09-18T11:28:03.863Z,16.80
2017-09-18T11:30:30.849Z,16.80
2017-09-18T11:33:04.154Z,16.80
2017-09-18T11:35:30.473Z,16.60
2017-09-18T11:37:56.727Z,16.40
2017-09-18T11:40:22.999Z,16.10
2017-09-18T11:42:49.369Z,16.30
2017-09-18T11:45:15.611Z,16.80
2017-09-18T11:47:41.831Z,16.70
2017-09-18T11:50:08.131Z,16.80
2017-09-18T11:52:34.426Z,17.00
2017-09-18T11:55:01.912Z,17.30
2017-09-18T11:57:28.153Z,17.30
2017-09-18T11:59:54.375Z,17.00
2017-09-18T12:02:21.009Z,17.00
2017-09-18T12:04:47.251Z,17.50
2017-09-18T12:07:13.506Z,17.30
2017-09-18T12:09:39.823Z,17.40
2017-09-18T12:12:06.053Z,17.60
2017-09-18T12:14:32.303Z,17.30
2017-09-18T12:16:58.506Z,17.10
2017-09-18T12:19:24.766Z,17.00
2017-09-18T12:21:51.013Z,16.80
2017-09-18T12:24:18.082Z,16.10
2017-09-18T12:26:44.324Z,16.10
2017-09-18T12:29:10.583Z,16.30
2017-09-18T12:31:36.806Z,16.40
2017-09-18T12:34:03.060Z,16.40
2017-09-18T12:36:29.355Z,16.40
2017-09-18T12:38:55.970Z,16.30
2017-09-18T12:41:22.216Z,16.40
2017-09-18T12:43:48.477Z,16.40
2017-09-18T12:46:14.729Z,16.40
2017-09-18T12:48:41.729Z,16.00
2017-09-18T12:51:08.018Z,16.00
2017-09-18T12:53:34.725Z,16.00
2017-09-18T12:56:01.720Z,16.40
2017-09-18T12:58:27.988Z,16.40
2017-09-18T13:00:54.291Z,16.40
2017-09-18T13:03:20.594Z,16.60
2017-09-18T13:05:47.626Z,16.60
2017-09-18T13:08:14.622Z,16.70
2017-09-18T13:10:40.896Z,16.70
2017-09-18T13:13:07.937Z,16.90
2017-09-18T13:15:34.168Z,16.90
2017-09-18T13:18:00.396Z,17.00
2017-09-18T13:20:26.711Z,17.50
2017-09-18T13:22:52.981Z,17.80
2017-09-18T13:25:19.953Z,17.80
2017-09-18T13:27:46.233Z,17.80
2017-09-18T13:30:13.724Z,17.60
2017-09-18T13:32:39.996Z,17.50
2017-09-18T13:35:06.305Z,17.40
2017-09-18T13:37:32.575Z,17.20
2017-09-18T13:39:58.801Z,17.10
2017-09-18T13:42:25.019Z,16.80
2017-09-18T13:44:51.465Z,16.70
2017-09-18T13:47:17.711Z,16.80
2017-09-18T13:49:44.647Z,16.80
2017-09-18T13:52:11.318Z,16.80
2017-09-18T13:54:37.486Z,17.10
2017-09-18T13:57:03.736Z,17.50
2017-09-18T13:59:30.044Z,17.50
2017-09-18T14:01:56.262Z,17.30
2017-09-18T14:04:22.510Z,17.40
2017-09-18T14:06:49.609Z,17.70
2017-09-18T14:09:15.845Z,17.60
2017-09-18T14:11:42.071Z,17.50
2017-09-18T14:14:08.286Z,17.30
2017-09-18T14:16:35.299Z,17.10
2017-09-18T14:19:01.531Z,17.10
2017-09-18T14:21:28.206Z,16.90
2017-09-18T14:23:54.462Z,16.80
2017-09-18T14:26:20.754Z,16.70
2017-09-18T14:28:47.001Z,16.70
2017-09-18T14:31:13.236Z,17.00
2017-09-18T14:33:39.523Z,17.00
2017-09-18T14:36:05.762Z,16.90
2017-09-18T14:38:32.785Z,16.90
2017-09-18T14:40:59.977Z,16.80
2017-09-18T14:43:26.612Z,16.80
2017-09-18T14:45:52.864Z,16.70
2017-09-18T14:48:19.118Z,16.60
2017-09-18T14:50:45.353Z,16.50
2017-09-18T14:53:11.599Z,16.40
2017-09-18T14:55:38.605Z,16.30
2017-09-18T14:58:04.900Z,16.30
2017-09-18T15:00:31.093Z,16.30
2017-09-18T15:02:57.307Z,16.20
2017-09-18T15:05:24.015Z,16.40
2017-09-18T15:07:50.205Z,16.40
2017-09-18T15:10:17.214Z,16.20
2017-09-18T15:12:43.431Z,16.20
2017-09-18T15:15:09.699Z,16.10
2017-09-18T15:17:35.969Z,16.00
2017-09-18T15:20:02.791Z,16.00
2017-09-18T15:22:29.794Z,15.80
2017-09-18T15:24:56.027Z,15.80
2017-09-18T15:27:22.302Z,15.80
2017-09-18T15:29:48.619Z,15.70
2017-09-18T15:32:15.612Z,15.50
2017-09-18T15:34:41.852Z,15.50
2017-09-18T15:37:08.112Z,15.50
2017-09-18T15:39:34.393Z,15.40
2017-09-18T15:42:01.087Z,15.40
2017-09-18T15:44:28.056Z,15.30
2017-09-18T15:46:55.001Z,15.20
2017-09-18T15:49:21.594Z,15.20
2017-09-18T15:51:47.858Z,15.10
2017-09-18T15:54:14.843Z,15.00
2017-09-18T15:56:41.141Z,15.00
2017-09-18T15:59:07.419Z,15.10
2017-09-18T16:01:33.740Z,15.00
2017-09-18T16:04:00.035Z,15.00
2017-09-18T16:06:26.270Z,14.90
2017-09-18T16:08:52.459Z,14.90
2017-09-18T16:11:19.142Z,14.80
2017-09-18T16:13:45.350Z,14.80
2017-09-18T16:16:12.326Z,14.80
2017-09-18T16:18:39.010Z,14.70
2017-09-18T16:21:05.246Z,14.70
2017-09-18T16:23:34.626Z,14.70
2017-09-18T16:26:00.900Z,14.70
2017-09-18T16:28:27.174Z,14.60
2017-09-18T16:30:53.458Z,14.60
2017-09-18T16:33:19.754Z,14.60
2017-09-18T16:35:46.774Z,14.60
2017-09-18T16:38:13.046Z,14.50
2017-09-18T16:40:40.426Z,14.50
2017-09-18T16:43:06.702Z,14.50
2017-09-18T16:45:32.982Z,14.50
2017-09-18T16:47:59.257Z,14.50
2017-09-18T16:50:25.547Z,14.50
2017-09-18T16:52:51.862Z,14.50
2017-09-18T16:55:18.844Z,14.50
2017-09-18T16:57:45.102Z,14.50
2017-09-18T17:00:11.365Z,14.40
2017-09-18T17:02:38.177Z,14.40
2017-09-18T17:05:05.243Z,14.30
2017-09-18T17:07:32.515Z,14.30
2017-09-18T17:09:59.488Z,14.10
2017-09-18T17:12:25.772Z,14.10
2017-09-18T17:14:52.794Z,14.00
2017-09-18T17:17:19.413Z,13.90
2017-09-18T17:19:45.628Z,13.90
2017-09-18T17:22:11.874Z,13.80
2017-09-18T17:24:38.442Z,13.80
2017-09-18T17:27:04.707Z,13.70
2017-09-18T17:29:30.961Z,13.70
2017-09-18T17:31:57.194Z,13.60
2017-09-18T17:34:23.390Z,13.50
2017-09-18T17:36:50.361Z,13.40
2017-09-18T17:39:16.638Z,13.40
2017-09-18T17:41:43.604Z,13.30
2017-09-18T17:44:10.598Z,13.30
2017-09-18T17:46:36.894Z,13.20
2017-09-18T17:49:03.185Z,13.20
2017-09-18T17:51:29.485Z,13.20
2017-09-18T17:53:55.789Z,13.20
2017-09-18T17:56:22.084Z,13.10
2017-09-18T17:58:49.111Z,13.00
2017-09-18T18:01:15.675Z,13.00
2017-09-18T18:03:42.686Z,12.90
2017-09-18T18:06:08.970Z,12.90
2017-09-18T18:08:35.670Z,12.90
2017-09-18T18:11:02.610Z,12.80
2017-09-18T18:13:29.661Z,12.80
2017-09-18T18:15:55.978Z,12.80
2017-09-18T18:18:22.241Z,12.70
2017-09-18T18:20:48.561Z,12.70
2017-09-18T18:23:14.872Z,12.70
2017-09-18T18:25:41.163Z,12.70
2017-09-18T18:28:07.397Z,12.70
2017-09-18T18:30:33.649Z,12.60
2017-09-18T18:32:59.881Z,12.60
2017-09-18T18:35:26.156Z,12.50
2017-09-18T18:37:53.095Z,12.50
2017-09-18T18:40:20.070Z,12.40
2017-09-18T18:42:46.310Z,12.30
2017-09-18T18:45:12.558Z,12.30
2017-09-18T18:47:38.865Z,12.20
2017-09-18T18:50:05.757Z,12.20
2017-09-18T18:52:32.082Z,12.20
2017-09-18T18:54:58.378Z,12.10
2017-09-18T18:57:24.742Z,12.00
2017-09-18T18:59:51.030Z,12.00
2017-09-18T19:02:17.290Z,12.00
2017-09-18T19:04:43.589Z,11.90
2017-09-18T19:07:10.201Z,11.90
2017-09-18T19:09:36.555Z,11.90
2017-09-18T19:12:02.777Z,11.90
2017-09-18T19:14:29.423Z,11.80
2017-09-18T19:16:55.695Z,11.80
2017-09-18T19:19:21.898Z,11.80
2017-09-18T19:21:48.201Z,11.80
2017-09-18T19:24:14.444Z,11.80
2017-09-18T19:26:40.676Z,11.70
2017-09-18T19:29:06.971Z,11.60
2017-09-18T19:31:33.237Z,11.60
2017-09-18T19:33:59.498Z,11.50
2017-09-18T19:36:25.834Z,11.50
2017-09-18T19:38:52.087Z,11.50
2017-09-18T19:41:19.132Z,11.40
2017-09-18T19:43:46.510Z,11.30
2017-09-18T19:46:12.790Z,11.30
2017-09-18T19:48:39.101Z,11.20
2017-09-18T19:51:05.418Z,11.10
2017-09-18T19:53:31.670Z,11.10
2017-09-18T19:55:58.636Z,11.10
2017-09-18T19:58:25.266Z,11.00
2017-09-18T20:00:52.237Z,11.00
2017-09-18T20:03:19.186Z,11.00
2017-09-18T20:05:46.616Z,10.90
2017-09-18T20:08:12.827Z,10.90
2017-09-18T20:10:39.152Z,10.90
2017-09-18T20:13:05.824Z,10.90
2017-09-18T20:15:32.106Z,10.90
2017-09-18T20:17:58.394Z,10.90
2017-09-18T20:20:25.769Z,10.80
2017-09-18T20:22:52.065Z,10.80
2017-09-18T20:25:18.339Z,10.90
2017-09-18T20:27:44.588Z,10.90
2017-09-18T20:30:10.852Z,11.00
2017-09-18T20:32:37.478Z,11.00
2017-09-18T20:35:04.454Z,10.90
2017-09-18T20:37:31.427Z,10.90
2017-09-18T20:39:58.158Z,10.90
2017-09-18T20:42:24.449Z,10.90
2017-09-18T20:44:50.684Z,10.90
2017-09-18T20:47:18.053Z,10.90
2017-09-18T20:49:45.057Z,10.90
2017-09-18T20:52:11.370Z,10.90
2017-09-18T20:54:38.019Z,10.90
2017-09-18T20:57:04.259Z,10.80
2017-09-18T20:59:30.620Z,10.90
2017-09-18T21:01:57.906Z,10.90
2017-09-18T21:04:31.262Z,10.90
2017-09-18T21:06:58.649Z,11.00
2017-09-18T21:09:24.949Z,11.00
2017-09-18T21:11:51.912Z,11.00
2017-09-18T21:14:19.338Z,11.00
2017-09-18T21:16:45.638Z,11.00
2017-09-18T21:19:11.881Z,11.00
2017-09-18T21:21:45.101Z,11.00
2017-09-18T21:24:11.354Z,10.90
2017-09-18T21:26:37.598Z,10.90
2017-09-18T21:29:03.886Z,10.90
2017-09-18T21:31:30.903Z,10.80
2017-09-18T21:33:57.135Z,10.80
2017-09-18T21:36:23.419Z,10.80
2017-09-18T21:38:50.404Z,10.80
2017-09-18T21:41:16.662Z,10.70
2017-09-18T21:43:42.929Z,10.80
2017-09-18T21:46:09.198Z,10.70
2017-09-18T21:48:35.427Z,10.70
2017-09-18T21:51:01.982Z,10.60
2017-09-18T21:53:28.258Z,10.40
2017-09-18T21:55:54.506Z,10.40
2017-09-18T21:58:21.078Z,10.40
2017-09-18T22:00:48.040Z,10.50
2017-09-18T22:03:15.022Z,10.40
2017-09-18T22:05:41.619Z,10.40
2017-09-18T22:08:07.887Z,10.40
2017-09-18T22:10:34.176Z,10.50
2017-09-18T22:13:01.176Z,10.50
2017-09-18T22:15:27.450Z,10.50
2017-09-18T22:17:54.443Z,10.50
2017-09-18T22:20:20.697Z,10.60
2017-09-18T22:22:46.919Z,10.60
2017-09-18T22:25:13.142Z,10.50
2017-09-18T22:27:39.415Z,10.60
2017-09-18T22:30:05.648Z,10.60
2017-09-18T22:32:32.681Z,10.60
2017-09-18T22:34:59.362Z,10.60
2017-09-18T22:37:25.617Z,10.60
2017-09-18T22:39:51.855Z,10.60
2017-09-18T22:42:18.551Z,10.60
2017-09-18T22:44:44.817Z,10.60
2017-09-18T22:47:11.057Z,10.60
2017-09-18T22:49:37.612Z,10.60
2017-09-18T22:52:03.854Z,10.60
2017-09-18T22:54:30.864Z,10.60
2017-09-18T22:56:57.579Z,10.60
2017-09-18T22:59:23.874Z,10.60
2017-09-18T23:01:50.926Z,10.70
2017-09-18T23:04:18.273Z,10.70
2017-09-18T23:06:45.252Z,10.70
2017-09-18T23:09:11.537Z,10.70
2017-09-18T23:11:38.173Z,10.70
2017-09-18T23:14:04.387Z,10.70
2017-09-18T23:16:30.664Z,10.70
2017-09-18T23:18:57.265Z,10.70
2017-09-18T23:21:23.507Z,10.70
2017-09-18T23:23:50.524Z,10.70
2017-09-18T23:26:17.214Z,10.70
2017-09-18T23:28:43.438Z,10.70
2017-09-18T23:31:09.665Z,10.70
2017-09-18T23:33:37.134Z,10.60
2017-09-18T23:36:10.342Z,10.60
2017-09-18T23:38:36.614Z,10.60
2017-09-18T23:41:02.901Z,10.70
2017-09-18T23:43:29.134Z,10.70
2017-09-18T23:45:55.790Z,10.70
2017-09-18T23:48:22.016Z,10.60
2017-09-18T23:50:48.193Z,10.60
2017-09-18T23:53:15.588Z,10.70
2017-09-18T23:55:41.865Z,10.70
2017-09-18T23:58:08.846Z,10.70
